Detalii statie Pioneer South Africa DEMO [00001DA1]

Toti senzorii

Date Solar radiation Dgt [W/mm]Precipitatii [mm]Viteza vantului [m/s]Voltaj baterie [mV]Leaf Wetness [Min]HC Air temperature [C]HC Relative humidity [%]Punctul de roua [C]
mediesumamediemaxultimatimpmedieminmaxmediemediemin
2019-02-21 00:00:00 0 0 0 0 6444 19.93 19.62 20.13 74.72 15.1 14.8
2019-02-21 01:00:00 0 0 0 0 6424 19.08 18.62 19.69 81.07 15.6 15.4
2019-02-21 02:00:00 0 0 0 0 6434 18.3 18.11 18.7 84.88 15.6 15.4
2019-02-21 03:00:00 0 0 0 0 6424 17.86 17.55 18.15 85.56 15.2 15.1
2019-02-21 04:00:00 0 0 0 0 6424 17.33 17 17.64 88.68 15.3 15.1
2019-02-21 05:00:00 0 0 0 0 6434 16.77 16.45 17.06 92.73 15.4 15.4
2019-02-21 06:00:00 0 0 0 0 6416 16.42 16.15 16.62 96.07 15.6 15.5
2019-02-21 07:00:00 13 0 0 0 6434 16.93 16.21 18.22 93.68 15.8 15.3
2019-02-21 08:00:00 31 0 0 0 6474 19.93 18.38 22.06 76.73 15.5 14.9
2019-02-21 09:00:00 435 0 0 0.2 6894 25.98 22.53 28.74 47.87 13.6 12.6
2019-02-21 10:00:00 698 0 0.3 1.1 6884 28.8 27.98 29.85 38.34 12.9 11.4
2019-02-21 11:00:00 854 0 0.5 1.4 6884 30.05 29.25 31.75 37.19 13.5 12.9
2019-02-21 12:00:00 974 0 0.4 1.4 6884 32.23 30.35 33.43 30.24 12.3 10.8
2019-02-21 13:00:00 945 0 0.6 1 6884 32.45 31.02 33.22 26.38 10.2 8.9
2019-02-21 14:00:00 935 0 0.4 1 6864 33.48 31.73 34.37 23.39 9.4 8.4
2019-02-21 15:00:00 353 0 0.2 0.8 6874 31.78 30.91 32.78 24.18 8.4 7.6
2019-02-21 16:00:00 380 0 0.3 1.1 6748 30.56 28.64 32.73 28.74 10 9.3
2019-02-21 17:00:00 138 0 0.1 0.3 6728 28.68 27.83 29.27 31.63 9.8 8.5
2019-02-21 18:00:00 37 0 0 0.6 6610 28.91 28.39 29.29 29.68 9.1 7.9
2019-02-21 19:00:00 8 0 0 0 6502 26.53 25.1 28.15 36.75 10.2 9.6
2019-02-21 20:00:00 0 0 0 0.1 6474 24.29 23.66 24.94 46.28 11.8 10.7
2019-02-21 21:00:00 0 0 0 0 6464 22.97 22.24 23.53 51.38 12.2 12
2019-02-21 22:00:00 0 0 0 0 6444 21.51 21.18 22.12 55.52 12 11.7
2019-02-21 23:00:00 0 0 0 0 6444 21.01 20.65 21.46 58 12.2 11.9
2019-02-22 00:00:00 0 0 0 0.1 6434 20.6 20.12 20.93 59.34 12.2 12
2019-02-22 01:00:00 0 0 0 0 6424 19.5 19.24 19.98 62.9 12.1 11.9
2019-02-22 02:00:00 0 0 0 0 6424 18.94 18.37 19.61 66.41 12.3 11.9
2019-02-22 03:00:00 0 0 0 0 6424 18.4 18.14 18.65 72.12 13.1 12.8
2019-02-22 04:00:00 0 0 0 0 6416 18.23 18.04 18.54 81.01 14.8 14.2
2019-02-22 05:00:00 0 0 0 0.1 6416 18.52 17.96 18.91 84.67 15.7 15.4
2019-02-22 06:00:00 0 0 0 0 6416 18.21 17.86 18.91 88.52 16.1 15.9
2019-02-22 07:00:00 26 0 0 0.1 6464 18.86 18.17 19.43 87.44 16.5 16.4
2019-02-22 08:00:00 62 0 0.3 0.7 6630 19.68 19.23 20.11 83.4 16.6 16.5
2019-02-22 09:00:00 446 0 0.4 1.1 6894 22.03 20.36 23.93 70.99 16.3 15.9
2019-02-22 10:00:00 446 0 0.4 0.8 6884 24.17 23.22 24.81 59.74 15.6 15.3
2019-02-22 11:00:00 662 0 0.5 1.1 6884 25.02 24.01 26.05 55.15 15.2 14.5
2019-02-22 12:00:00 739 0 0.6 1.5 6884 26.49 25.09 28.01 49.39 14.8 14.5
2019-02-22 13:00:00 907 0 0.7 1.4 6874 28.36 27.05 29.77 43.75 14.6 14
2019-02-22 14:00:00 768 0 0.6 1.5 6884 28.79 27.31 29.8 42.23 14.4 14
2019-02-22 15:00:00 625 0 0.5 1.1 6884 29.47 28.07 30.98 39.89 14.1 13.4
2019-02-22 16:00:00 277 0 0.2 0.8 6776 28.86 28.2 29.33 40.73 13.9 13.7
2019-02-22 17:00:00 164 0 0.5 1.1 6756 28.89 28.47 29.56 39.5 13.5 11.7
2019-02-22 18:00:00 79 0 0.4 1 6660 28.33 27.74 28.86 37.37 12.1 11.7